DLH418 EDDF-KIAD
Flight info
| Callsign | DLH418 |
|---|---|
| Flight time | N/A |
| Altitude | 36000 |
| Route | OBOKA2E OBOKA Z28 DIBIR DCT BUDIP DCT MIMVA DCT GETNO DCT LUTOV DCT RESNO/M083F360 DCT 55N020W 55N030W 5430N04000W 5330N05000W DCT PELTU/N0482F360 N598E TAFFY/N0488F400 DCT KJOHN DCT ALB HYPER9 |
| Aircraft | A346/H-SDE2E3FGHIJ3J4J5M1RWXY/LB1D1 |
Departure
| Time | 2026-05-08 02:02 |
|---|---|
| Airport | Frankfurt Main Airport (EDDF) |
Arrival
| Time | N/A |
|---|---|
| Airport | Washington Dulles International Airport (KIAD) |
| Time | Latitude | Longitude | Altitude | Speed | Heading |
|---|---|---|---|---|---|
| 2026-05-08 01:51 | 50.04569 | 8.56907 | 364 ft | 0 kts | 294° |
| 2026-05-08 01:53 | 50.04572 | 8.56901 | 366 ft | 1 kts | 309° |
| 2026-05-08 01:54 | 50.04573 | 8.56899 | 366 ft | 3 kts | 307° |
| 2026-05-08 01:54 | 50.04576 | 8.56880 | 363 ft | 4 kts | 254° |
| 2026-05-08 01:54 | 50.04519 | 8.56861 | 358 ft | 12 kts | 187° |
| 2026-05-08 01:55 | 50.04430 | 8.56849 | 361 ft | 14 kts | 186° |
| 2026-05-08 01:55 | 50.04337 | 8.56827 | 361 ft | 14 kts | 190° |
| 2026-05-08 01:55 | 50.04232 | 8.56704 | 361 ft | 28 kts | 246° |
| 2026-05-08 01:55 | 50.04160 | 8.56419 | 361 ft | 29 kts | 250° |
| 2026-05-08 01:56 | 50.04092 | 8.56129 | 363 ft | 28 kts | 250° |
| 2026-05-08 01:56 | 50.04025 | 8.55850 | 364 ft | 28 kts | 249° |
| 2026-05-08 01:56 | 50.03960 | 8.55578 | 368 ft | 27 kts | 249° |
| 2026-05-08 01:56 | 50.03896 | 8.55309 | 371 ft | 27 kts | 249° |
| 2026-05-08 01:57 | 50.03829 | 8.55032 | 371 ft | 27 kts | 250° |
| 2026-05-08 01:57 | 50.03798 | 8.54892 | 371 ft | 11 kts | 251° |
| 2026-05-08 01:57 | 50.03774 | 8.54783 | 374 ft | 11 kts | 251° |
| 2026-05-08 01:57 | 50.03750 | 8.54676 | 377 ft | 11 kts | 247° |
| 2026-05-08 01:58 | 50.03712 | 8.54533 | 378 ft | 24 kts | 248° |
| 2026-05-08 01:58 | 50.03666 | 8.54348 | 381 ft | 15 kts | 249° |
| 2026-05-08 01:58 | 50.03627 | 8.54189 | 378 ft | 16 kts | 250° |
| 2026-05-08 01:58 | 50.03563 | 8.53917 | 380 ft | 32 kts | 250° |
| 2026-05-08 01:59 | 50.03508 | 8.53689 | 380 ft | 15 kts | 250° |
| 2026-05-08 01:59 | 50.03492 | 8.53620 | 379 ft | 7 kts | 250° |
| 2026-05-08 01:59 | 50.03470 | 8.53529 | 378 ft | 11 kts | 250° |
| 2026-05-08 01:59 | 50.03443 | 8.53414 | 377 ft | 12 kts | 250° |
| 2026-05-08 02:00 | 50.03424 | 8.53347 | 381 ft | 3 kts | 230° |
| 2026-05-08 02:00 | 50.03358 | 8.53356 | 384 ft | 14 kts | 140° |
| 2026-05-08 02:00 | 50.03299 | 8.53460 | 385 ft | 13 kts | 120° |
| 2026-05-08 02:00 | 50.03296 | 8.53602 | 382 ft | 15 kts | 77° |
| 2026-05-08 02:01 | 50.03361 | 8.53876 | 383 ft | 59 kts | 69° |
| 2026-05-08 02:01 | 50.03581 | 8.54791 | 377 ft | 129 kts | 69° |
| 2026-05-08 02:01 | 50.03938 | 8.56254 | 374 ft | 182 kts | 70° |
| 2026-05-08 02:01 | 50.04378 | 8.58114 | 880 ft | 195 kts | 69° |
| 2026-05-08 02:02 | 50.04809 | 8.59967 | 1765 ft | 192 kts | 68° |
| 2026-05-08 02:02 | 50.05274 | 8.61774 | 2662 ft | 190 kts | 56° |
| 2026-05-08 02:02 | 50.06175 | 8.63191 | 3180 ft | 197 kts | 26° |
| 2026-05-08 02:02 | 50.07526 | 8.63698 | 3559 ft | 211 kts | 359° |
| 2026-05-08 02:03 | 50.09068 | 8.63578 | 3936 ft | 231 kts | 356° |
| 2026-05-08 02:03 | 50.10767 | 8.63404 | 4361 ft | 249 kts | 356° |
| 2026-05-08 02:03 | 50.12528 | 8.63248 | 4878 ft | 263 kts | 357° |
| 2026-05-08 02:03 | 50.14373 | 8.63111 | 5628 ft | 267 kts | 357° |
| 2026-05-08 02:04 | 50.16244 | 8.62982 | 6443 ft | 269 kts | 357° |
| 2026-05-08 02:04 | 50.18149 | 8.62854 | 7251 ft | 272 kts | 357° |
| 2026-05-08 02:04 | 50.20052 | 8.62726 | 8007 ft | 275 kts | 357° |
| 2026-05-08 02:04 | 50.21985 | 8.62597 | 8755 ft | 279 kts | 357° |
| 2026-05-08 02:05 | 50.23928 | 8.62466 | 9480 ft | 282 kts | 357° |
| 2026-05-08 02:05 | 50.25897 | 8.62334 | 10191 ft | 285 kts | 357° |
| 2026-05-08 02:05 | 50.27903 | 8.62199 | 10769 ft | 294 kts | 358° |
| 2026-05-08 02:05 | 50.30002 | 8.61882 | 11078 ft | 312 kts | 345° |
| 2026-05-08 02:06 | 50.31999 | 8.60402 | 11368 ft | 329 kts | 323° |
| 2026-05-08 02:06 | 50.33545 | 8.57721 | 11651 ft | 346 kts | 301° |
| 2026-05-08 02:06 | 50.34467 | 8.54139 | 11966 ft | 362 kts | 289° |
| 2026-05-08 02:06 | 50.35266 | 8.50251 | 12286 ft | 378 kts | 289° |
| 2026-05-08 02:07 | 50.36081 | 8.46324 | 12801 ft | 386 kts | 289° |
| 2026-05-08 02:07 | 50.36947 | 8.42242 | 13533 ft | 388 kts | 289° |
| 2026-05-08 02:07 | 50.37563 | 8.38149 | 14174 ft | 394 kts | 277° |
| 2026-05-08 02:07 | 50.37527 | 8.33838 | 14817 ft | 398 kts | 263° |
| 2026-05-08 02:08 | 50.36872 | 8.29623 | 15463 ft | 402 kts | 253° |
| 2026-05-08 02:08 | 50.36015 | 8.25422 | 16086 ft | 406 kts | 252° |
| 2026-05-08 02:08 | 50.35126 | 8.21171 | 16680 ft | 410 kts | 252° |
| 2026-05-08 02:08 | 50.34237 | 8.16877 | 17266 ft | 414 kts | 253° |
| 2026-05-08 02:09 | 50.33357 | 8.12564 | 17852 ft | 417 kts | 253° |
| 2026-05-08 02:09 | 50.32475 | 8.08206 | 18422 ft | 421 kts | 253° |
| 2026-05-08 02:09 | 50.31588 | 8.03811 | 18984 ft | 424 kts | 253° |
| 2026-05-08 02:09 | 50.30687 | 7.99352 | 19526 ft | 428 kts | 253° |
| 2026-05-08 02:10 | 50.29912 | 7.94925 | 20007 ft | 431 kts | 261° |
| 2026-05-08 02:10 | 50.29819 | 7.90228 | 20493 ft | 433 kts | 277° |
| 2026-05-08 02:10 | 50.30520 | 7.85654 | 21026 ft | 433 kts | 292° |
| 2026-05-08 02:10 | 50.31743 | 7.81323 | 21564 ft | 435 kts | 296° |
| 2026-05-08 02:11 | 50.33048 | 7.77009 | 22039 ft | 439 kts | 296° |
| 2026-05-08 02:11 | 50.34361 | 7.72660 | 22479 ft | 443 kts | 297° |
| 2026-05-08 02:11 | 50.36037 | 7.68597 | 22892 ft | 446 kts | 311° |
| 2026-05-08 02:11 | 50.38297 | 7.65321 | 23356 ft | 447 kts | 325° |
| 2026-05-08 02:12 | 50.41030 | 7.62950 | 23826 ft | 448 kts | 336° |
| 2026-05-08 02:12 | 50.43893 | 7.61007 | 24289 ft | 451 kts | 337° |
| 2026-05-08 02:12 | 50.46810 | 7.59082 | 24689 ft | 455 kts | 337° |
| 2026-05-08 02:12 | 50.49729 | 7.57125 | 25093 ft | 458 kts | 337° |
| 2026-05-08 02:13 | 50.52665 | 7.55092 | 25507 ft | 461 kts | 335° |
| 2026-05-08 02:13 | 50.55548 | 7.52828 | 25919 ft | 464 kts | 332° |
| 2026-05-08 02:13 | 50.58372 | 7.50296 | 26304 ft | 467 kts | 329° |
| 2026-05-08 02:13 | 50.61099 | 7.47588 | 26680 ft | 470 kts | 327° |
| 2026-05-08 02:14 | 50.63848 | 7.44766 | 27064 ft | 472 kts | 327° |
| 2026-05-08 02:14 | 50.66598 | 7.41922 | 27434 ft | 475 kts | 327° |
| 2026-05-08 02:14 | 50.69379 | 7.39051 | 27789 ft | 478 kts | 327° |
| 2026-05-08 02:14 | 50.72092 | 7.35959 | 28135 ft | 481 kts | 321° |
| 2026-05-08 02:15 | 50.74595 | 7.32408 | 28484 ft | 484 kts | 315° |
| 2026-05-08 02:15 | 50.76847 | 7.28436 | 28826 ft | 486 kts | 309° |
| 2026-05-08 02:15 | 50.78852 | 7.24180 | 29163 ft | 489 kts | 306° |
| 2026-05-08 02:15 | 50.80823 | 7.19753 | 29497 ft | 492 kts | 305° |
| 2026-05-08 02:16 | 50.82810 | 7.15229 | 29809 ft | 494 kts | 305° |
| 2026-05-08 02:16 | 50.84785 | 7.10739 | 30128 ft | 496 kts | 305° |
| 2026-05-08 02:16 | 50.86767 | 7.06251 | 30414 ft | 499 kts | 306° |
| 2026-05-08 02:16 | 50.88734 | 7.01809 | 30717 ft | 500 kts | 306° |
| 2026-05-08 02:17 | 50.90085 | 6.98758 | 30981 ft | 499 kts | 306° |
| 2026-05-08 02:17 | 50.92749 | 6.92738 | 31546 ft | 497 kts | 306° |
| 2026-05-08 02:17 | 50.94734 | 6.88242 | 31948 ft | 496 kts | 305° |
| 2026-05-08 02:17 | 50.96045 | 6.85266 | 32194 ft | 495 kts | 305° |
| 2026-05-08 02:18 | 50.98020 | 6.80777 | 32573 ft | 494 kts | 305° |
| 2026-05-08 02:18 | 51.00625 | 6.74847 | 33047 ft | 493 kts | 305° |
| 2026-05-08 02:18 | 51.01952 | 6.71821 | 33290 ft | 493 kts | 305° |
| 2026-05-08 02:18 | 51.03881 | 6.67416 | 33636 ft | 492 kts | 305° |
| 2026-05-08 02:19 | 51.05865 | 6.62878 | 33981 ft | 491 kts | 305° |
| 2026-05-08 02:19 | 51.07815 | 6.58407 | 34320 ft | 490 kts | 305° |
| 2026-05-08 02:19 | 51.09724 | 6.54023 | 34628 ft | 490 kts | 305° |
| 2026-05-08 02:19 | 51.11687 | 6.49502 | 34953 ft | 489 kts | 305° |
| 2026-05-08 02:20 | 51.13598 | 6.45094 | 35253 ft | 488 kts | 305° |
| 2026-05-08 02:20 | 51.15529 | 6.40632 | 35547 ft | 487 kts | 305° |
| 2026-05-08 02:20 | 51.17453 | 6.36182 | 35826 ft | 487 kts | 305° |
| 2026-05-08 02:20 | 51.19370 | 6.31742 | 36090 ft | 486 kts | 305° |
| 2026-05-08 02:21 | 51.21291 | 6.27287 | 36348 ft | 486 kts | 304° |
| 2026-05-08 02:21 | 51.23206 | 6.22842 | 36574 ft | 485 kts | 304° |
| 2026-05-08 02:21 | 51.25122 | 6.18381 | 36784 ft | 486 kts | 304° |
| 2026-05-08 02:21 | 51.27035 | 6.13922 | 36986 ft | 486 kts | 304° |
| 2026-05-08 02:22 | 51.28928 | 6.09443 | 37165 ft | 486 kts | 304° |
| 2026-05-08 02:22 | 51.30783 | 6.04921 | 37369 ft | 486 kts | 303° |
| 2026-05-08 02:22 | 51.32627 | 6.00382 | 37537 ft | 486 kts | 303° |
| 2026-05-08 02:22 | 51.34506 | 5.95895 | 37701 ft | 486 kts | 306° |
| 2026-05-08 02:23 | 51.36519 | 5.91553 | 37858 ft | 485 kts | 308° |
| 2026-05-08 02:23 | 51.38670 | 5.87381 | 38019 ft | 485 kts | 311° |
| 2026-05-08 02:23 | 51.40951 | 5.83395 | 38173 ft | 485 kts | 314° |
| 2026-05-08 02:23 | 51.43356 | 5.79607 | 38312 ft | 485 kts | 317° |
| 2026-05-08 02:24 | 51.45860 | 5.75968 | 38456 ft | 484 kts | 319° |
| 2026-05-08 02:24 | 51.48393 | 5.72371 | 38591 ft | 484 kts | 319° |
| 2026-05-08 02:24 | 51.50921 | 5.68795 | 38719 ft | 484 kts | 319° |
| 2026-05-08 02:24 | 51.53451 | 5.65208 | 38842 ft | 484 kts | 319° |
| 2026-05-08 02:25 | 51.55979 | 5.61611 | 38960 ft | 484 kts | 319° |
| 2026-05-08 02:25 | 51.58502 | 5.58010 | 39079 ft | 484 kts | 318° |
| 2026-05-08 02:25 | 51.61032 | 5.54389 | 39200 ft | 484 kts | 318° |
| 2026-05-08 02:25 | 51.63544 | 5.50786 | 39296 ft | 484 kts | 318° |
| 2026-05-08 02:26 | 51.68542 | 5.43599 | 39498 ft | 484 kts | 318° |
| 2026-05-08 02:26 | 51.73575 | 5.36337 | 39675 ft | 484 kts | 318° |
| 2026-05-08 02:27 | 51.78594 | 5.29073 | 39849 ft | 484 kts | 318° |
| 2026-05-08 02:27 | 51.83620 | 5.21775 | 40000 ft | 484 kts | 318° |
| 2026-05-08 02:28 | 51.88610 | 5.14507 | 40138 ft | 484 kts | 318° |
| 2026-05-08 02:28 | 51.93615 | 5.07195 | 40139 ft | 485 kts | 318° |
| 2026-05-08 02:29 | 51.98607 | 4.99881 | 40141 ft | 485 kts | 318° |
| 2026-05-08 02:29 | 52.03574 | 4.92579 | 40141 ft | 484 kts | 318° |
| 2026-05-08 02:30 | 52.08530 | 4.85272 | 40141 ft | 484 kts | 318° |
| 2026-05-08 02:30 | 52.13445 | 4.78003 | 40141 ft | 484 kts | 317° |
| 2026-05-08 02:31 | 52.18318 | 4.70773 | 40141 ft | 484 kts | 317° |
| 2026-05-08 02:31 | 52.23140 | 4.63597 | 40141 ft | 484 kts | 317° |
| 2026-05-08 02:32 | 52.27973 | 4.56382 | 40141 ft | 484 kts | 317° |
| 2026-05-08 02:32 | 52.32851 | 4.49077 | 40141 ft | 484 kts | 317° |
| 2026-05-08 02:33 | 52.37691 | 4.41807 | 40141 ft | 484 kts | 317° |
| 2026-05-08 02:33 | 52.42445 | 4.34644 | 40141 ft | 484 kts | 317° |
| 2026-05-08 02:34 | 52.47174 | 4.27496 | 40141 ft | 484 kts | 317° |
| 2026-05-08 02:34 | 52.51910 | 4.20317 | 40141 ft | 484 kts | 317° |
| 2026-05-08 02:35 | 52.56622 | 4.13152 | 40141 ft | 484 kts | 317° |
| 2026-05-08 02:35 | 52.61297 | 4.06021 | 40141 ft | 484 kts | 317° |
| 2026-05-08 02:36 | 52.65933 | 3.98929 | 40141 ft | 484 kts | 317° |
| 2026-05-08 02:36 | 52.70659 | 3.91677 | 40141 ft | 484 kts | 317° |
| 2026-05-08 02:37 | 52.75307 | 3.84524 | 40141 ft | 484 kts | 317° |
| 2026-05-08 02:37 | 52.79969 | 3.77327 | 40141 ft | 484 kts | 317° |
| 2026-05-08 02:38 | 52.84609 | 3.70142 | 40141 ft | 484 kts | 317° |
| 2026-05-08 02:38 | 52.89325 | 3.62818 | 40141 ft | 484 kts | 317° |
| 2026-05-08 02:39 | 52.93977 | 3.55577 | 40141 ft | 484 kts | 317° |
| 2026-05-08 02:39 | 52.98597 | 3.48362 | 40141 ft | 484 kts | 316° |
| 2026-05-08 02:40 | 53.03180 | 3.41070 | 40140 ft | 484 kts | 313° |
| 2026-05-08 02:40 | 53.07220 | 3.32802 | 40142 ft | 484 kts | 304° |
| 2026-05-08 02:41 | 53.10379 | 3.23569 | 40142 ft | 485 kts | 295° |
| 2026-05-08 02:41 | 53.12633 | 3.13367 | 40142 ft | 486 kts | 285° |
| 2026-05-08 02:42 | 53.14258 | 3.02739 | 40141 ft | 486 kts | 284° |
| 2026-05-08 02:42 | 53.15824 | 2.92125 | 40141 ft | 486 kts | 284° |
| 2026-05-08 02:43 | 53.17385 | 2.81564 | 40141 ft | 486 kts | 284° |
| 2026-05-08 02:43 | 53.18948 | 2.70978 | 40141 ft | 486 kts | 284° |
| 2026-05-08 02:44 | 53.20515 | 2.60311 | 40141 ft | 486 kts | 284° |
| 2026-05-08 02:44 | 53.22077 | 2.49619 | 40141 ft | 486 kts | 284° |
| 2026-05-08 02:45 | 53.23625 | 2.38954 | 40141 ft | 486 kts | 284° |
| 2026-05-08 02:45 | 53.25125 | 2.28547 | 40141 ft | 486 kts | 284° |
| 2026-05-08 02:46 | 53.26654 | 2.17862 | 40141 ft | 486 kts | 284° |
| 2026-05-08 02:46 | 53.28163 | 2.07250 | 40141 ft | 486 kts | 283° |
| 2026-05-08 02:47 | 53.29670 | 1.96574 | 40141 ft | 486 kts | 283° |
| 2026-05-08 02:47 | 53.31178 | 1.85818 | 40141 ft | 486 kts | 283° |
| 2026-05-08 02:48 | 53.32672 | 1.75088 | 40141 ft | 486 kts | 283° |
| 2026-05-08 02:48 | 53.34143 | 1.64440 | 40141 ft | 486 kts | 283° |
| 2026-05-08 02:49 | 53.35605 | 1.53786 | 40141 ft | 486 kts | 283° |
| 2026-05-08 02:49 | 53.36812 | 1.44931 | 40141 ft | 486 kts | 283° |
| 2026-05-08 02:50 | 53.38262 | 1.34220 | 40141 ft | 486 kts | 283° |
| 2026-05-08 02:50 | 53.39690 | 1.23597 | 40141 ft | 485 kts | 283° |
| 2026-05-08 02:51 | 53.41125 | 1.12841 | 40141 ft | 485 kts | 283° |
| 2026-05-08 02:51 | 53.42529 | 1.02243 | 40141 ft | 485 kts | 283° |
| 2026-05-08 02:52 | 53.43939 | 0.91519 | 40141 ft | 485 kts | 283° |
| 2026-05-08 02:52 | 53.45338 | 0.80800 | 40141 ft | 485 kts | 283° |
| 2026-05-08 02:53 | 53.46715 | 0.70168 | 40141 ft | 485 kts | 282° |
| 2026-05-08 02:53 | 53.48105 | 0.59354 | 40141 ft | 485 kts | 282° |
| 2026-05-08 02:54 | 53.49494 | 0.48463 | 40141 ft | 485 kts | 282° |
| 2026-05-08 02:54 | 53.50894 | 0.37401 | 40141 ft | 485 kts | 282° |
| 2026-05-08 02:55 | 53.52982 | 0.20735 | 40141 ft | 485 kts | 282° |
| 2026-05-08 02:56 | 53.54363 | 0.09595 | 40141 ft | 485 kts | 282° |
| 2026-05-08 02:56 | 53.55734 | -0.01543 | 40141 ft | 485 kts | 282° |
| 2026-05-08 02:57 | 53.57095 | -0.12700 | 40141 ft | 485 kts | 282° |
| 2026-05-08 02:57 | 53.58445 | -0.23855 | 40141 ft | 485 kts | 282° |
| 2026-05-08 02:58 | 53.59784 | -0.35016 | 40141 ft | 485 kts | 282° |
| 2026-05-08 02:58 | 53.61113 | -0.46184 | 40141 ft | 485 kts | 282° |
| 2026-05-08 02:59 | 53.62432 | -0.57371 | 40141 ft | 485 kts | 281° |
| 2026-05-08 02:59 | 53.63738 | -0.68534 | 40141 ft | 485 kts | 281° |
| 2026-05-08 03:00 | 53.65035 | -0.79718 | 40141 ft | 485 kts | 281° |
| 2026-05-08 03:00 | 53.66315 | -0.90853 | 40141 ft | 485 kts | 281° |
| 2026-05-08 03:01 | 53.67590 | -1.02039 | 40141 ft | 485 kts | 281° |
| 2026-05-08 03:01 | 53.68855 | -1.13241 | 40141 ft | 485 kts | 281° |
| 2026-05-08 03:02 | 53.70110 | -1.24457 | 40141 ft | 485 kts | 281° |
| 2026-05-08 03:02 | 53.71353 | -1.35654 | 40141 ft | 485 kts | 281° |
| 2026-05-08 03:03 | 53.72587 | -1.46874 | 40141 ft | 485 kts | 281° |
| 2026-05-08 03:03 | 53.73810 | -1.58101 | 40141 ft | 484 kts | 281° |
| 2026-05-08 03:04 | 53.75029 | -1.69387 | 40141 ft | 484 kts | 281° |
| 2026-05-08 03:04 | 53.76230 | -1.80611 | 40141 ft | 484 kts | 281° |
| 2026-05-08 03:05 | 53.77425 | -1.91891 | 40141 ft | 484 kts | 280° |
| 2026-05-08 03:05 | 53.78598 | -2.03063 | 40141 ft | 484 kts | 280° |
| 2026-05-08 03:06 | 53.79769 | -2.14316 | 40141 ft | 484 kts | 280° |
| 2026-05-08 03:06 | 53.80925 | -2.25544 | 40141 ft | 484 kts | 280° |
| 2026-05-08 03:07 | 53.82072 | -2.36780 | 40141 ft | 484 kts | 280° |
| 2026-05-08 03:07 | 53.83205 | -2.47994 | 40141 ft | 484 kts | 280° |
| 2026-05-08 03:08 | 53.84319 | -2.59126 | 40141 ft | 484 kts | 280° |
| 2026-05-08 03:08 | 53.85422 | -2.70258 | 40141 ft | 484 kts | 280° |
| 2026-05-08 03:09 | 53.86517 | -2.81407 | 40141 ft | 484 kts | 279° |
| 2026-05-08 03:09 | 53.87596 | -2.92516 | 40141 ft | 484 kts | 279° |
| 2026-05-08 03:10 | 53.88656 | -3.03525 | 40141 ft | 484 kts | 279° |
| 2026-05-08 03:10 | 53.89708 | -3.14559 | 40141 ft | 484 kts | 279° |
| 2026-05-08 03:11 | 53.90744 | -3.25520 | 40141 ft | 484 kts | 279° |
| 2026-05-08 03:11 | 53.91769 | -3.36511 | 40141 ft | 484 kts | 279° |
| 2026-05-08 03:12 | 53.93022 | -3.47321 | 40140 ft | 483 kts | 284° |
| 2026-05-08 03:12 | 53.94918 | -3.57980 | 40141 ft | 483 kts | 290° |
| 2026-05-08 03:13 | 53.97267 | -3.68245 | 40142 ft | 482 kts | 292° |
| 2026-05-08 03:13 | 53.99672 | -3.78497 | 40141 ft | 482 kts | 292° |
| 2026-05-08 03:14 | 54.02062 | -3.88767 | 40141 ft | 482 kts | 292° |
| 2026-05-08 03:14 | 54.04416 | -3.98955 | 40141 ft | 482 kts | 291° |
| 2026-05-08 03:15 | 54.06783 | -4.09263 | 40141 ft | 482 kts | 291° |
| 2026-05-08 03:15 | 54.09122 | -4.19503 | 40141 ft | 482 kts | 291° |
| 2026-05-08 03:16 | 54.11449 | -4.29743 | 40141 ft | 482 kts | 291° |
| 2026-05-08 03:16 | 54.13781 | -4.40054 | 40141 ft | 482 kts | 291° |
| 2026-05-08 03:17 | 54.16099 | -4.50354 | 40141 ft | 482 kts | 291° |
| 2026-05-08 03:17 | 54.18432 | -4.60771 | 40141 ft | 482 kts | 291° |
| 2026-05-08 03:18 | 54.20735 | -4.71105 | 40141 ft | 482 kts | 291° |
| 2026-05-08 03:18 | 54.22632 | -4.79657 | 40142 ft | 482 kts | 291° |
| 2026-05-08 03:19 | 54.24941 | -4.90116 | 40141 ft | 482 kts | 291° |
| 2026-05-08 03:19 | 54.27237 | -5.00563 | 40141 ft | 482 kts | 291° |
| 2026-05-08 03:20 | 54.29527 | -5.11042 | 40141 ft | 482 kts | 291° |
| 2026-05-08 03:20 | 54.31824 | -5.21603 | 40141 ft | 482 kts | 291° |
| 2026-05-08 03:21 | 54.34120 | -5.32212 | 40141 ft | 482 kts | 290° |
| 2026-05-08 03:21 | 54.36423 | -5.42913 | 40141 ft | 482 kts | 290° |
| 2026-05-08 03:22 | 54.38732 | -5.53697 | 40141 ft | 482 kts | 290° |
| 2026-05-08 03:22 | 54.41020 | -5.64441 | 40141 ft | 482 kts | 290° |
| 2026-05-08 03:23 | 54.43313 | -5.75266 | 40141 ft | 482 kts | 290° |
| 2026-05-08 03:23 | 54.45600 | -5.86117 | 40141 ft | 482 kts | 290° |
| 2026-05-08 03:24 | 54.47875 | -5.96971 | 40141 ft | 482 kts | 290° |
| 2026-05-08 03:24 | 54.50144 | -6.07856 | 40141 ft | 482 kts | 290° |
| 2026-05-08 03:25 | 54.52396 | -6.18716 | 40141 ft | 482 kts | 290° |
| 2026-05-08 03:25 | 54.54642 | -6.29606 | 40141 ft | 481 kts | 290° |
| 2026-05-08 03:26 | 54.56880 | -6.40521 | 40141 ft | 481 kts | 290° |
| 2026-05-08 03:26 | 54.59106 | -6.51431 | 40141 ft | 481 kts | 290° |
| 2026-05-08 03:27 | 54.61321 | -6.62355 | 40141 ft | 481 kts | 289° |
| 2026-05-08 03:27 | 54.63510 | -6.73205 | 40141 ft | 481 kts | 289° |
| 2026-05-08 03:28 | 54.65705 | -6.84144 | 40141 ft | 481 kts | 289° |
| 2026-05-08 03:28 | 54.67894 | -6.95118 | 40141 ft | 481 kts | 289° |
| 2026-05-08 03:29 | 54.70071 | -7.06092 | 40141 ft | 481 kts | 289° |
| 2026-05-08 03:29 | 54.72236 | -7.17067 | 40141 ft | 481 kts | 289° |
| 2026-05-08 03:30 | 54.75458 | -7.33515 | 40141 ft | 481 kts | 289° |
| 2026-05-08 03:31 | 54.79712 | -7.55450 | 40141 ft | 481 kts | 289° |
| 2026-05-08 03:32 | 54.82854 | -7.71814 | 40141 ft | 481 kts | 289° |
| 2026-05-08 03:32 | 54.84911 | -7.82602 | 40141 ft | 481 kts | 289° |
| 2026-05-08 03:33 | 54.86982 | -7.93531 | 40141 ft | 481 kts | 288° |
| 2026-05-08 03:33 | 54.89020 | -8.04339 | 40141 ft | 481 kts | 288° |
| 2026-05-08 03:34 | 54.91038 | -8.15111 | 40141 ft | 481 kts | 288° |
| 2026-05-08 03:34 | 54.93032 | -8.25810 | 40141 ft | 481 kts | 288° |
| 2026-05-08 03:35 | 54.95012 | -8.36495 | 40141 ft | 481 kts | 288° |
| 2026-05-08 03:35 | 54.96993 | -8.47251 | 40141 ft | 481 kts | 288° |
| 2026-05-08 03:36 | 54.98955 | -8.57964 | 40141 ft | 481 kts | 288° |
| 2026-05-08 03:36 | 55.00911 | -8.68702 | 40141 ft | 481 kts | 288° |
| 2026-05-08 03:37 | 55.02862 | -8.79479 | 40141 ft | 481 kts | 288° |
| 2026-05-08 03:37 | 55.04796 | -8.90220 | 40141 ft | 481 kts | 288° |
| 2026-05-08 03:38 | 55.06726 | -9.01008 | 40141 ft | 481 kts | 288° |
| 2026-05-08 03:38 | 55.08619 | -9.11648 | 40141 ft | 480 kts | 288° |
| 2026-05-08 03:39 | 55.10536 | -9.22483 | 40141 ft | 480 kts | 287° |
| 2026-05-08 03:39 | 55.12448 | -9.33362 | 40141 ft | 480 kts | 287° |
| 2026-05-08 03:40 | 55.14326 | -9.44104 | 40141 ft | 480 kts | 287° |
| 2026-05-08 03:40 | 55.16217 | -9.54979 | 40141 ft | 480 kts | 287° |
| 2026-05-08 03:41 | 55.18094 | -9.65839 | 40141 ft | 480 kts | 287° |
| 2026-05-08 03:41 | 55.19951 | -9.76660 | 40141 ft | 480 kts | 287° |
| 2026-05-08 03:42 | 55.21696 | -9.87433 | 40142 ft | 480 kts | 283° |
| 2026-05-08 03:42 | 55.22882 | -9.98546 | 40142 ft | 481 kts | 278° |
| 2026-05-08 03:43 | 55.23410 | -10.09879 | 40142 ft | 482 kts | 272° |
| 2026-05-08 03:43 | 55.23287 | -10.21212 | 40141 ft | 482 kts | 267° |
| 2026-05-08 03:44 | 55.22942 | -10.32554 | 40141 ft | 482 kts | 267° |
| 2026-05-08 03:44 | 55.22586 | -10.43950 | 40141 ft | 482 kts | 267° |
| 2026-05-08 03:45 | 55.22224 | -10.55409 | 40141 ft | 482 kts | 267° |
| 2026-05-08 03:45 | 55.21855 | -10.66853 | 40141 ft | 482 kts | 267° |
| 2026-05-08 03:46 | 55.21480 | -10.78195 | 40141 ft | 482 kts | 267° |
| 2026-05-08 03:46 | 55.21094 | -10.89562 | 40141 ft | 482 kts | 267° |
| 2026-05-08 03:47 | 55.20695 | -11.00985 | 40141 ft | 482 kts | 267° |
| 2026-05-08 03:47 | 55.20285 | -11.12425 | 40141 ft | 482 kts | 266° |
| 2026-05-08 03:48 | 55.19864 | -11.23858 | 40141 ft | 482 kts | 266° |
| 2026-05-08 03:48 | 55.19438 | -11.35162 | 40141 ft | 482 kts | 266° |
| 2026-05-08 03:49 | 55.19000 | -11.46465 | 40141 ft | 482 kts | 266° |
| 2026-05-08 03:49 | 55.18547 | -11.57919 | 40141 ft | 482 kts | 266° |
| 2026-05-08 03:50 | 55.18085 | -11.69301 | 40141 ft | 482 kts | 266° |
| 2026-05-08 03:50 | 55.17613 | -11.80689 | 40141 ft | 482 kts | 266° |
| 2026-05-08 03:51 | 55.17127 | -11.92142 | 40141 ft | 482 kts | 266° |
| 2026-05-08 03:51 | 55.16635 | -12.03470 | 40141 ft | 482 kts | 266° |
| 2026-05-08 03:52 | 55.16214 | -12.12998 | 40141 ft | 481 kts | 266° |
| 2026-05-08 03:52 | 55.15701 | -12.24358 | 40141 ft | 481 kts | 266° |
| 2026-05-08 03:53 | 55.15184 | -12.35587 | 40141 ft | 481 kts | 265° |
| 2026-05-08 03:53 | 55.14649 | -12.46978 | 40141 ft | 481 kts | 265° |
| 2026-05-08 03:54 | 55.14105 | -12.58327 | 40141 ft | 481 kts | 265° |
| 2026-05-08 03:54 | 55.13551 | -12.69673 | 40141 ft | 481 kts | 265° |
| 2026-05-08 03:55 | 55.12984 | -12.81051 | 40141 ft | 481 kts | 265° |
| 2026-05-08 03:55 | 55.12413 | -12.92316 | 40141 ft | 481 kts | 265° |
| 2026-05-08 03:56 | 55.11834 | -13.03510 | 40141 ft | 481 kts | 265° |
| 2026-05-08 03:56 | 55.11237 | -13.14855 | 40141 ft | 481 kts | 265° |
| 2026-05-08 03:57 | 55.10634 | -13.26122 | 40141 ft | 481 kts | 265° |
| 2026-05-08 03:57 | 55.10017 | -13.37431 | 40141 ft | 481 kts | 265° |
| 2026-05-08 03:58 | 55.09391 | -13.48726 | 40141 ft | 481 kts | 265° |
| 2026-05-08 03:58 | 55.08748 | -13.60136 | 40141 ft | 481 kts | 265° |
| 2026-05-08 03:59 | 55.08100 | -13.71432 | 40141 ft | 481 kts | 264° |
| 2026-05-08 03:59 | 55.07438 | -13.82789 | 40141 ft | 481 kts | 264° |
| 2026-05-08 04:00 | 55.06767 | -13.94131 | 40141 ft | 481 kts | 264° |
| 2026-05-08 04:00 | 55.06094 | -14.05317 | 40141 ft | 481 kts | 264° |
| 2026-05-08 04:01 | 55.05402 | -14.16639 | 40141 ft | 481 kts | 264° |
| 2026-05-08 04:01 | 55.04697 | -14.28006 | 40141 ft | 481 kts | 264° |
| 2026-05-08 04:02 | 55.03988 | -14.39258 | 40141 ft | 481 kts | 264° |
| 2026-05-08 04:02 | 55.03272 | -14.50475 | 40141 ft | 481 kts | 264° |
| 2026-05-08 04:03 | 55.02536 | -14.61824 | 40141 ft | 481 kts | 264° |
| 2026-05-08 04:03 | 55.01431 | -14.78605 | 40141 ft | 481 kts | 264° |
| 2026-05-08 04:04 | 55.00673 | -14.89864 | 40141 ft | 481 kts | 263° |
| 2026-05-08 04:04 | 55.00133 | -15.01124 | 40140 ft | 480 kts | 269° |
| 2026-05-08 04:05 | 55.00189 | -15.12495 | 40142 ft | 480 kts | 272° |
| 2026-05-08 04:05 | 55.00415 | -15.23890 | 40142 ft | 480 kts | 272° |
| 2026-05-08 04:06 | 55.00626 | -15.35088 | 40141 ft | 480 kts | 272° |
| 2026-05-08 04:06 | 55.00824 | -15.46368 | 40141 ft | 480 kts | 272° |
| 2026-05-08 04:07 | 55.01010 | -15.57717 | 40141 ft | 480 kts | 272° |
| 2026-05-08 04:07 | 55.01184 | -15.69043 | 40141 ft | 480 kts | 272° |
| 2026-05-08 04:08 | 55.01347 | -15.80332 | 40141 ft | 480 kts | 272° |
| 2026-05-08 04:08 | 55.01500 | -15.91670 | 40141 ft | 480 kts | 271° |
| 2026-05-08 04:09 | 55.01640 | -16.02891 | 40141 ft | 480 kts | 271° |
| 2026-05-08 04:09 | 55.01772 | -16.14165 | 40141 ft | 480 kts | 271° |
| 2026-05-08 04:10 | 55.01893 | -16.25495 | 40141 ft | 480 kts | 271° |
| 2026-05-08 04:10 | 55.02003 | -16.36727 | 40141 ft | 480 kts | 271° |
| 2026-05-08 04:11 | 55.02102 | -16.47997 | 40141 ft | 480 kts | 271° |
| 2026-05-08 04:11 | 55.02192 | -16.59349 | 40141 ft | 480 kts | 271° |
| 2026-05-08 04:12 | 55.02273 | -16.70808 | 40141 ft | 480 kts | 271° |
| 2026-05-08 04:12 | 55.02341 | -16.82068 | 40141 ft | 480 kts | 271° |
| 2026-05-08 04:13 | 55.02399 | -16.93425 | 40141 ft | 480 kts | 271° |
| 2026-05-08 04:13 | 55.02447 | -17.04732 | 40141 ft | 480 kts | 271° |
| 2026-05-08 04:14 | 55.02484 | -17.16081 | 40141 ft | 480 kts | 271° |
| 2026-05-08 04:14 | 55.02510 | -17.27444 | 40141 ft | 480 kts | 270° |
| 2026-05-08 04:15 | 55.02526 | -17.38756 | 40141 ft | 480 kts | 270° |
| 2026-05-08 04:15 | 55.02532 | -17.50166 | 40141 ft | 480 kts | 270° |
| 2026-05-08 04:16 | 55.02527 | -17.61539 | 40141 ft | 480 kts | 270° |
| 2026-05-08 04:16 | 55.02511 | -17.72893 | 40141 ft | 480 kts | 270° |
| 2026-05-08 04:17 | 55.02486 | -17.83914 | 40141 ft | 480 kts | 270° |
| 2026-05-08 04:17 | 55.02450 | -17.95056 | 40141 ft | 480 kts | 270° |
| 2026-05-08 04:18 | 55.02405 | -18.06117 | 40141 ft | 480 kts | 270° |
| 2026-05-08 04:18 | 55.02350 | -18.17134 | 40141 ft | 480 kts | 270° |
| 2026-05-08 04:19 | 55.02283 | -18.28310 | 40141 ft | 480 kts | 270° |
| 2026-05-08 04:19 | 55.02206 | -18.39574 | 40141 ft | 480 kts | 270° |
| 2026-05-08 04:20 | 55.02120 | -18.50719 | 40141 ft | 480 kts | 269° |
| 2026-05-08 04:20 | 55.02022 | -18.61959 | 40141 ft | 480 kts | 269° |
| 2026-05-08 04:21 | 55.01914 | -18.73203 | 40141 ft | 480 kts | 269° |
| 2026-05-08 04:21 | 55.01797 | -18.84306 | 40141 ft | 480 kts | 269° |
| 2026-05-08 04:22 | 55.01669 | -18.95545 | 40141 ft | 480 kts | 269° |
| 2026-05-08 04:22 | 55.01530 | -19.06790 | 40141 ft | 480 kts | 269° |
| 2026-05-08 04:23 | 55.01381 | -19.18012 | 40141 ft | 480 kts | 269° |
| 2026-05-08 04:23 | 55.01222 | -19.29246 | 40141 ft | 480 kts | 269° |
| 2026-05-08 04:24 | 55.01055 | -19.40379 | 40141 ft | 480 kts | 269° |
| 2026-05-08 04:24 | 55.00876 | -19.51577 | 40141 ft | 480 kts | 269° |
| 2026-05-08 04:25 | 55.00686 | -19.62799 | 40141 ft | 480 kts | 269° |
| 2026-05-08 04:25 | 55.00522 | -19.72092 | 40141 ft | 480 kts | 269° |
| 2026-05-08 04:26 | 55.00315 | -19.83310 | 40141 ft | 480 kts | 268° |
| 2026-05-08 04:26 | 55.00096 | -19.94534 | 40141 ft | 480 kts | 269° |
| 2026-05-08 04:27 | 55.00198 | -20.05725 | 40140 ft | 480 kts | 274° |
| 2026-05-08 04:27 | 55.00638 | -20.16969 | 40141 ft | 480 kts | 274° |
| 2026-05-08 04:28 | 55.01086 | -20.28166 | 40141 ft | 480 kts | 274° |
| 2026-05-08 04:28 | 55.01520 | -20.39360 | 40141 ft | 480 kts | 274° |
| 2026-05-08 04:29 | 55.01938 | -20.50490 | 40141 ft | 480 kts | 274° |
| 2026-05-08 04:29 | 55.02348 | -20.61706 | 40141 ft | 480 kts | 274° |
| 2026-05-08 04:30 | 55.02744 | -20.72842 | 40141 ft | 480 kts | 274° |
| 2026-05-08 04:30 | 55.03132 | -20.84068 | 40141 ft | 480 kts | 274° |
| 2026-05-08 04:31 | 55.03510 | -20.95283 | 40141 ft | 480 kts | 274° |
| 2026-05-08 04:31 | 55.03878 | -21.06509 | 40141 ft | 480 kts | 274° |
| 2026-05-08 04:32 | 55.04234 | -21.17684 | 40141 ft | 480 kts | 274° |
| 2026-05-08 04:32 | 55.04578 | -21.28797 | 40141 ft | 480 kts | 273° |
| 2026-05-08 04:33 | 55.04916 | -21.40049 | 40141 ft | 480 kts | 273° |
| 2026-05-08 04:33 | 55.05243 | -21.51294 | 40141 ft | 480 kts | 273° |
| 2026-05-08 04:34 | 55.05558 | -21.62499 | 40141 ft | 480 kts | 273° |
| 2026-05-08 04:34 | 55.05864 | -21.73735 | 40141 ft | 480 kts | 273° |
| 2026-05-08 04:35 | 55.06158 | -21.84900 | 40141 ft | 480 kts | 273° |
| 2026-05-08 04:35 | 55.06439 | -21.95985 | 40141 ft | 480 kts | 273° |
| 2026-05-08 04:36 | 55.06716 | -22.07300 | 40141 ft | 480 kts | 273° |
| 2026-05-08 04:36 | 55.06980 | -22.18478 | 40141 ft | 480 kts | 272° |
| 2026-05-08 04:37 | 55.07233 | -22.29689 | 40141 ft | 480 kts | 272° |
| 2026-05-08 04:37 | 55.07477 | -22.40910 | 40141 ft | 480 kts | 272° |
| 2026-05-08 04:38 | 55.07711 | -22.52194 | 40141 ft | 480 kts | 272° |
| 2026-05-08 04:38 | 55.07935 | -22.63447 | 40141 ft | 480 kts | 272° |
| 2026-05-08 04:39 | 55.08148 | -22.74685 | 40141 ft | 480 kts | 272° |
| 2026-05-08 04:39 | 55.08351 | -22.85963 | 40141 ft | 480 kts | 272° |
| 2026-05-08 04:40 | 55.08544 | -22.97259 | 40141 ft | 480 kts | 272° |
| 2026-05-08 04:40 | 55.08725 | -23.08465 | 40141 ft | 480 kts | 272° |
| 2026-05-08 04:41 | 55.08896 | -23.19689 | 40141 ft | 480 kts | 272° |
| 2026-05-08 04:41 | 55.09057 | -23.30956 | 40141 ft | 480 kts | 272° |
| 2026-05-08 04:42 | 55.09208 | -23.42170 | 40141 ft | 480 kts | 271° |
| 2026-05-08 04:42 | 55.09348 | -23.53437 | 40141 ft | 480 kts | 271° |
| 2026-05-08 04:43 | 55.09478 | -23.64690 | 40141 ft | 480 kts | 271° |
| 2026-05-08 04:43 | 55.09598 | -23.75979 | 40141 ft | 480 kts | 271° |
| 2026-05-08 04:44 | 55.09708 | -23.87249 | 40141 ft | 480 kts | 271° |
| 2026-05-08 04:44 | 55.09806 | -23.98427 | 40141 ft | 480 kts | 271° |
| 2026-05-08 04:45 | 55.09895 | -24.09734 | 40141 ft | 480 kts | 271° |
| 2026-05-08 04:45 | 55.09972 | -24.20885 | 40141 ft | 480 kts | 271° |
| 2026-05-08 04:46 | 55.10040 | -24.32129 | 40141 ft | 480 kts | 271° |
| 2026-05-08 04:46 | 55.10097 | -24.43397 | 40141 ft | 480 kts | 271° |
| 2026-05-08 04:47 | 55.10144 | -24.54605 | 40141 ft | 480 kts | 271° |
| 2026-05-08 04:47 | 55.10181 | -24.65901 | 40141 ft | 480 kts | 271° |
| 2026-05-08 04:48 | 55.10207 | -24.77051 | 40141 ft | 480 kts | 270° |
| 2026-05-08 04:48 | 55.10223 | -24.88259 | 40141 ft | 480 kts | 270° |
| 2026-05-08 04:49 | 55.10229 | -24.99476 | 40141 ft | 480 kts | 270° |
| 2026-05-08 04:49 | 55.10224 | -25.10713 | 40141 ft | 480 kts | 270° |
| 2026-05-08 04:50 | 55.10209 | -25.21998 | 40141 ft | 480 kts | 270° |
| 2026-05-08 04:50 | 55.10184 | -25.33142 | 40141 ft | 480 kts | 270° |
| 2026-05-08 04:51 | 55.10149 | -25.44371 | 40141 ft | 480 kts | 270° |
| 2026-05-08 04:51 | 55.10103 | -25.55668 | 40141 ft | 480 kts | 270° |
| 2026-05-08 04:52 | 55.10047 | -25.66731 | 40141 ft | 480 kts | 270° |
| 2026-05-08 04:52 | 55.09980 | -25.78075 | 40141 ft | 480 kts | 270° |
| 2026-05-08 04:53 | 55.09903 | -25.89401 | 40141 ft | 480 kts | 270° |
| 2026-05-08 04:53 | 55.09815 | -26.00674 | 40141 ft | 481 kts | 269° |
| 2026-05-08 04:54 | 55.09717 | -26.11972 | 40141 ft | 481 kts | 269° |
| 2026-05-08 04:54 | 55.09608 | -26.23213 | 40141 ft | 481 kts | 269° |
| 2026-05-08 04:55 | 55.09490 | -26.34402 | 40141 ft | 481 kts | 269° |
| 2026-05-08 04:55 | 55.09361 | -26.45678 | 40141 ft | 481 kts | 269° |
| 2026-05-08 04:56 | 55.09222 | -26.56902 | 40141 ft | 481 kts | 269° |
| 2026-05-08 04:56 | 55.09073 | -26.68132 | 40141 ft | 481 kts | 269° |
| 2026-05-08 04:57 | 55.08912 | -26.79413 | 40141 ft | 481 kts | 269° |
| 2026-05-08 04:57 | 55.08771 | -26.88810 | 40141 ft | 481 kts | 269° |
| 2026-05-08 04:58 | 55.08590 | -27.00138 | 40141 ft | 481 kts | 269° |
| 2026-05-08 04:58 | 55.08399 | -27.11468 | 40141 ft | 481 kts | 269° |
| 2026-05-08 04:59 | 55.08198 | -27.22765 | 40141 ft | 481 kts | 269° |
| 2026-05-08 04:59 | 55.07986 | -27.34117 | 40141 ft | 481 kts | 268° |
| 2026-05-08 05:00 | 55.07763 | -27.45450 | 40141 ft | 481 kts | 268° |
| 2026-05-08 05:00 | 55.07530 | -27.56775 | 40141 ft | 481 kts | 268° |
| 2026-05-08 05:01 | 55.07288 | -27.68058 | 40141 ft | 481 kts | 268° |
| 2026-05-08 05:01 | 55.07034 | -27.79360 | 40141 ft | 481 kts | 268° |
| 2026-05-08 05:02 | 55.06769 | -27.90711 | 40141 ft | 481 kts | 268° |
| 2026-05-08 05:02 | 55.06494 | -28.02056 | 40141 ft | 481 kts | 268° |
| 2026-05-08 05:03 | 55.06207 | -28.13407 | 40141 ft | 481 kts | 268° |
| 2026-05-08 05:03 | 55.05912 | -28.24699 | 40141 ft | 481 kts | 268° |
| 2026-05-08 05:04 | 55.05605 | -28.36024 | 40141 ft | 481 kts | 268° |
| 2026-05-08 05:04 | 55.05288 | -28.47332 | 40141 ft | 481 kts | 268° |
| 2026-05-08 05:05 | 55.04962 | -28.58627 | 40141 ft | 481 kts | 267° |
| 2026-05-08 05:05 | 55.04625 | -28.69901 | 40141 ft | 481 kts | 267° |
| 2026-05-08 05:06 | 55.04277 | -28.81182 | 40141 ft | 481 kts | 267° |
| 2026-05-08 05:06 | 55.03919 | -28.92471 | 40141 ft | 481 kts | 267° |
| 2026-05-08 05:07 | 55.03552 | -29.03721 | 40141 ft | 481 kts | 267° |
| 2026-05-08 05:07 | 55.03171 | -29.15069 | 40141 ft | 481 kts | 267° |
| 2026-05-08 05:08 | 55.02781 | -29.26372 | 40141 ft | 481 kts | 267° |
| 2026-05-08 05:08 | 55.02383 | -29.37602 | 40141 ft | 481 kts | 267° |
| 2026-05-08 05:09 | 55.01979 | -29.48715 | 40141 ft | 481 kts | 266° |
| 2026-05-08 05:09 | 55.01558 | -29.60012 | 40141 ft | 481 kts | 266° |
| 2026-05-08 05:10 | 55.00908 | -29.76968 | 40141 ft | 481 kts | 266° |
| 2026-05-08 05:11 | 55.00464 | -29.88225 | 40141 ft | 481 kts | 266° |
| 2026-05-08 05:11 | 55.00023 | -29.99485 | 40139 ft | 481 kts | 268° |
| 2026-05-08 05:12 | 54.99867 | -30.10875 | 40141 ft | 481 kts | 269° |
| 2026-05-08 05:12 | 54.99760 | -30.22103 | 40141 ft | 481 kts | 269° |
| 2026-05-08 05:13 | 54.99641 | -30.33362 | 40141 ft | 481 kts | 269° |
| 2026-05-08 05:13 | 54.99510 | -30.44712 | 40141 ft | 481 kts | 269° |
| 2026-05-08 05:14 | 54.99366 | -30.56057 | 40141 ft | 481 kts | 269° |
| 2026-05-08 05:14 | 54.99213 | -30.67377 | 40141 ft | 481 kts | 269° |
| 2026-05-08 05:15 | 54.99049 | -30.78670 | 40141 ft | 481 kts | 269° |
| 2026-05-08 05:15 | 54.98876 | -30.89848 | 40141 ft | 481 kts | 269° |
| 2026-05-08 05:16 | 54.98693 | -31.01064 | 40141 ft | 481 kts | 269° |
| 2026-05-08 05:16 | 54.98499 | -31.12266 | 40141 ft | 481 kts | 269° |
| 2026-05-08 05:17 | 54.98295 | -31.23469 | 40141 ft | 481 kts | 268° |
| 2026-05-08 05:17 | 54.98081 | -31.34643 | 40141 ft | 481 kts | 268° |
| 2026-05-08 05:18 | 54.97857 | -31.45855 | 40141 ft | 481 kts | 268° |
| 2026-05-08 05:18 | 54.97621 | -31.57084 | 40141 ft | 481 kts | 268° |
| 2026-05-08 05:19 | 54.97376 | -31.68284 | 40141 ft | 481 kts | 268° |
| 2026-05-08 05:19 | 54.97121 | -31.79446 | 40141 ft | 481 kts | 268° |
| 2026-05-08 05:20 | 54.96859 | -31.90513 | 40141 ft | 481 kts | 268° |
| 2026-05-08 05:20 | 54.96581 | -32.01778 | 40141 ft | 481 kts | 268° |
| 2026-05-08 05:21 | 54.96295 | -32.12991 | 40141 ft | 481 kts | 268° |
| 2026-05-08 05:21 | 54.95998 | -32.24193 | 40141 ft | 481 kts | 268° |
| 2026-05-08 05:22 | 54.95691 | -32.35380 | 40141 ft | 481 kts | 268° |
| 2026-05-08 05:22 | 54.95375 | -32.46520 | 40141 ft | 481 kts | 268° |
| 2026-05-08 05:23 | 54.95048 | -32.57716 | 40141 ft | 481 kts | 267° |
| 2026-05-08 05:23 | 54.94709 | -32.68947 | 40141 ft | 481 kts | 267° |
| 2026-05-08 05:24 | 54.94360 | -32.80178 | 40141 ft | 481 kts | 267° |
| 2026-05-08 05:24 | 54.94000 | -32.91409 | 40141 ft | 481 kts | 267° |
| 2026-05-08 05:25 | 54.93629 | -33.02655 | 40141 ft | 481 kts | 267° |
| 2026-05-08 05:25 | 54.93249 | -33.13869 | 40141 ft | 481 kts | 267° |
| 2026-05-08 05:26 | 54.92860 | -33.25053 | 40141 ft | 481 kts | 267° |
| 2026-05-08 05:26 | 54.92459 | -33.36274 | 40141 ft | 481 kts | 267° |
| 2026-05-08 05:27 | 54.92046 | -33.47525 | 40141 ft | 481 kts | 266° |
| 2026-05-08 05:27 | 54.91633 | -33.58497 | 40141 ft | 481 kts | 266° |
| 2026-05-08 05:28 | 54.91200 | -33.69747 | 40141 ft | 481 kts | 266° |
| 2026-05-08 05:28 | 54.90759 | -33.80937 | 40141 ft | 481 kts | 266° |
| 2026-05-08 05:29 | 54.90382 | -33.90288 | 40141 ft | 481 kts | 266° |
| 2026-05-08 05:29 | 54.89922 | -34.01459 | 40141 ft | 481 kts | 266° |
| 2026-05-08 05:30 | 54.89456 | -34.12546 | 40141 ft | 481 kts | 266° |
| 2026-05-08 05:30 | 54.88974 | -34.23766 | 40141 ft | 481 kts | 266° |
| 2026-05-08 05:31 | 54.88479 | -34.35019 | 40141 ft | 481 kts | 266° |
| 2026-05-08 05:31 | 54.87977 | -34.46219 | 40141 ft | 481 kts | 266° |
| 2026-05-08 05:32 | 54.87464 | -34.57424 | 40141 ft | 481 kts | 266° |
| 2026-05-08 05:32 | 54.86941 | -34.68614 | 40141 ft | 481 kts | 265° |
| 2026-05-08 05:33 | 54.86406 | -34.79836 | 40141 ft | 481 kts | 265° |
| 2026-05-08 05:33 | 54.85857 | -34.91128 | 40141 ft | 481 kts | 265° |
| 2026-05-08 05:34 | 54.85304 | -35.02305 | 40141 ft | 481 kts | 265° |
| 2026-05-08 05:34 | 54.84732 | -35.13641 | 40141 ft | 481 kts | 265° |
| 2026-05-08 05:35 | 54.84153 | -35.24894 | 40141 ft | 481 kts | 265° |
| 2026-05-08 05:35 | 54.83563 | -35.36167 | 40141 ft | 481 kts | 265° |
| 2026-05-08 05:36 | 54.82966 | -35.47365 | 40141 ft | 481 kts | 265° |
| 2026-05-08 05:36 | 54.82354 | -35.58655 | 40141 ft | 481 kts | 265° |
| 2026-05-08 05:37 | 54.81731 | -35.69952 | 40141 ft | 481 kts | 265° |
| 2026-05-08 05:37 | 54.81099 | -35.81209 | 40141 ft | 481 kts | 265° |
| 2026-05-08 05:38 | 54.80459 | -35.92426 | 40141 ft | 481 kts | 265° |
| 2026-05-08 05:38 | 54.79811 | -36.03600 | 40141 ft | 481 kts | 264° |
| 2026-05-08 05:39 | 54.79149 | -36.14826 | 40141 ft | 481 kts | 264° |
| 2026-05-08 05:39 | 54.78479 | -36.26013 | 40141 ft | 481 kts | 264° |
| 2026-05-08 05:40 | 54.77799 | -36.37199 | 40141 ft | 481 kts | 264° |
| 2026-05-08 05:40 | 54.77109 | -36.48363 | 40141 ft | 481 kts | 264° |
| 2026-05-08 05:41 | 54.76406 | -36.59577 | 40141 ft | 481 kts | 264° |
| 2026-05-08 05:41 | 54.75694 | -36.70767 | 40141 ft | 481 kts | 264° |
| 2026-05-08 05:42 | 54.74971 | -36.81969 | 40141 ft | 481 kts | 264° |
| 2026-05-08 05:42 | 54.74234 | -36.93216 | 40141 ft | 481 kts | 264° |
| 2026-05-08 05:43 | 54.73487 | -37.04440 | 40141 ft | 481 kts | 264° |
| 2026-05-08 05:43 | 54.72735 | -37.15605 | 40141 ft | 481 kts | 264° |
| 2026-05-08 05:44 | 54.71961 | -37.26921 | 40141 ft | 481 kts | 263° |
| 2026-05-08 05:44 | 54.71188 | -37.38076 | 40141 ft | 481 kts | 263° |
| 2026-05-08 05:45 | 54.70401 | -37.49272 | 40141 ft | 481 kts | 263° |
| 2026-05-08 05:45 | 54.69602 | -37.60486 | 40141 ft | 481 kts | 263° |
| 2026-05-08 05:46 | 54.68794 | -37.71673 | 40141 ft | 481 kts | 263° |
| 2026-05-08 05:46 | 54.67979 | -37.82826 | 40141 ft | 481 kts | 263° |
| 2026-05-08 05:47 | 54.67155 | -37.93957 | 40141 ft | 481 kts | 263° |
| 2026-05-08 05:47 | 54.66324 | -38.05023 | 40141 ft | 481 kts | 263° |
| 2026-05-08 05:48 | 54.65476 | -38.16194 | 40141 ft | 482 kts | 263° |
| 2026-05-08 05:48 | 54.64614 | -38.27396 | 40141 ft | 482 kts | 263° |
| 2026-05-08 05:49 | 54.63752 | -38.38466 | 40141 ft | 482 kts | 263° |
| 2026-05-08 05:49 | 54.62875 | -38.49598 | 40141 ft | 482 kts | 263° |
| 2026-05-08 05:50 | 54.61983 | -38.60786 | 40141 ft | 482 kts | 262° |
| 2026-05-08 05:50 | 54.61106 | -38.71653 | 40141 ft | 482 kts | 262° |
| 2026-05-08 05:51 | 54.60194 | -38.82819 | 40141 ft | 482 kts | 262° |
| 2026-05-08 05:51 | 54.59270 | -38.94005 | 40141 ft | 482 kts | 262° |
| 2026-05-08 05:52 | 54.58344 | -39.05087 | 40141 ft | 482 kts | 262° |
| 2026-05-08 05:52 | 54.57417 | -39.16062 | 40141 ft | 482 kts | 262° |
| 2026-05-08 05:53 | 54.56474 | -39.27099 | 40141 ft | 482 kts | 262° |
| 2026-05-08 05:53 | 54.55516 | -39.38193 | 40141 ft | 482 kts | 262° |
| 2026-05-08 05:54 | 54.54549 | -39.49267 | 40141 ft | 482 kts | 262° |
| 2026-05-08 05:54 | 54.53580 | -39.60255 | 40141 ft | 482 kts | 262° |
| 2026-05-08 05:55 | 54.52591 | -39.71345 | 40141 ft | 482 kts | 262° |
| 2026-05-08 05:55 | 54.51597 | -39.82379 | 40141 ft | 482 kts | 262° |
| 2026-05-08 05:56 | 54.50588 | -39.93450 | 40141 ft | 482 kts | 261° |
| 2026-05-08 05:56 | 54.49721 | -40.04455 | 40141 ft | 481 kts | 264° |
| 2026-05-08 05:57 | 54.49072 | -40.15598 | 40141 ft | 481 kts | 265° |
| 2026-05-08 05:57 | 54.48428 | -40.26675 | 40141 ft | 481 kts | 264° |
| 2026-05-08 05:58 | 54.47766 | -40.37830 | 40141 ft | 481 kts | 264° |
| 2026-05-08 05:58 | 54.47210 | -40.47063 | 40141 ft | 481 kts | 264° |
| 2026-05-08 05:59 | 54.46531 | -40.58170 | 40141 ft | 481 kts | 264° |
| 2026-05-08 05:59 | 54.45840 | -40.69297 | 40141 ft | 481 kts | 264° |
| 2026-05-08 06:00 | 54.45139 | -40.80415 | 40141 ft | 481 kts | 264° |
| 2026-05-08 06:00 | 54.44430 | -40.91489 | 40141 ft | 481 kts | 264° |
| 2026-05-08 06:01 | 54.43717 | -41.02473 | 40141 ft | 481 kts | 264° |
| 2026-05-08 06:01 | 54.42993 | -41.13461 | 40141 ft | 481 kts | 264° |
| 2026-05-08 06:02 | 54.42258 | -41.24464 | 40141 ft | 481 kts | 264° |
| 2026-05-08 06:02 | 54.41505 | -41.35581 | 40141 ft | 482 kts | 264° |
| 2026-05-08 06:03 | 54.40748 | -41.46595 | 40141 ft | 482 kts | 264° |
| 2026-05-08 06:03 | 54.39983 | -41.57588 | 40141 ft | 482 kts | 263° |
| 2026-05-08 06:04 | 54.39209 | -41.68560 | 40141 ft | 482 kts | 263° |
| 2026-05-08 06:04 | 54.38425 | -41.79528 | 40141 ft | 482 kts | 263° |
| 2026-05-08 06:05 | 54.37626 | -41.90563 | 40141 ft | 482 kts | 263° |
| 2026-05-08 06:05 | 54.36821 | -42.01547 | 40141 ft | 482 kts | 263° |
| 2026-05-08 06:06 | 54.35998 | -42.12620 | 40141 ft | 482 kts | 263° |
| 2026-05-08 06:06 | 54.35170 | -42.23621 | 40141 ft | 482 kts | 263° |
| 2026-05-08 06:07 | 54.34337 | -42.34564 | 40141 ft | 482 kts | 263° |
| 2026-05-08 06:07 | 54.33493 | -42.45510 | 40141 ft | 482 kts | 263° |
| 2026-05-08 06:08 | 54.32637 | -42.56479 | 40141 ft | 482 kts | 263° |
| 2026-05-08 06:08 | 54.31777 | -42.67362 | 40141 ft | 482 kts | 263° |
| 2026-05-08 06:09 | 54.30903 | -42.78300 | 40141 ft | 482 kts | 262° |
| 2026-05-08 06:09 | 54.30013 | -42.89310 | 40141 ft | 482 kts | 262° |
| 2026-05-08 06:10 | 54.29117 | -43.00266 | 40141 ft | 482 kts | 262° |
| 2026-05-08 06:10 | 54.28211 | -43.11210 | 40141 ft | 482 kts | 262° |
| 2026-05-08 06:11 | 54.27293 | -43.22177 | 40141 ft | 482 kts | 262° |
| 2026-05-08 06:11 | 54.26370 | -43.33091 | 40141 ft | 482 kts | 262° |
| 2026-05-08 06:12 | 54.25429 | -43.44082 | 40141 ft | 482 kts | 262° |
| 2026-05-08 06:12 | 54.24480 | -43.55051 | 40141 ft | 482 kts | 262° |
| 2026-05-08 06:13 | 54.23530 | -43.65906 | 40141 ft | 482 kts | 262° |
| 2026-05-08 06:13 | 54.22563 | -43.76853 | 40141 ft | 482 kts | 262° |
| 2026-05-08 06:14 | 54.21591 | -43.87725 | 40141 ft | 482 kts | 262° |
| 2026-05-08 06:14 | 54.20612 | -43.98568 | 40141 ft | 482 kts | 262° |
| 2026-05-08 06:15 | 54.19619 | -44.09457 | 40141 ft | 482 kts | 261° |
| 2026-05-08 06:15 | 54.18613 | -44.20363 | 40141 ft | 482 kts | 261° |
| 2026-05-08 06:16 | 54.17600 | -44.31248 | 40141 ft | 482 kts | 261° |
| 2026-05-08 06:16 | 54.16573 | -44.42161 | 40141 ft | 482 kts | 261° |
| 2026-05-08 06:17 | 54.15025 | -44.58409 | 40141 ft | 482 kts | 261° |
| 2026-05-08 06:17 | 54.13974 | -44.69306 | 40141 ft | 482 kts | 261° |
| 2026-05-08 06:18 | 54.12918 | -44.80152 | 40141 ft | 482 kts | 261° |
| 2026-05-08 06:18 | 54.11849 | -44.91012 | 40141 ft | 482 kts | 261° |
| 2026-05-08 06:19 | 54.10775 | -45.01837 | 40141 ft | 482 kts | 261° |
| 2026-05-08 06:19 | 54.09691 | -45.12641 | 40141 ft | 482 kts | 261° |
| 2026-05-08 06:20 | 54.08594 | -45.23488 | 40141 ft | 482 kts | 261° |
| 2026-05-08 06:20 | 54.07489 | -45.34303 | 40141 ft | 482 kts | 261° |
| 2026-05-08 06:21 | 54.06369 | -45.45170 | 40141 ft | 482 kts | 260° |
| 2026-05-08 06:21 | 54.05248 | -45.55943 | 40141 ft | 482 kts | 260° |
| 2026-05-08 06:22 | 54.04105 | -45.66821 | 40141 ft | 482 kts | 260° |
| 2026-05-08 06:22 | 54.02960 | -45.77633 | 40141 ft | 482 kts | 260° |
| 2026-05-08 06:23 | 54.01803 | -45.88448 | 40141 ft | 482 kts | 260° |
| 2026-05-08 06:23 | 54.00640 | -45.99229 | 40141 ft | 482 kts | 260° |
| 2026-05-08 06:24 | 53.99458 | -46.10087 | 40141 ft | 482 kts | 260° |
| 2026-05-08 06:24 | 53.98286 | -46.20765 | 40141 ft | 482 kts | 260° |
| 2026-05-08 06:25 | 53.97087 | -46.31586 | 40141 ft | 482 kts | 259° |
| 2026-05-08 06:25 | 53.95883 | -46.42366 | 40141 ft | 482 kts | 259° |
| 2026-05-08 06:26 | 53.94665 | -46.53178 | 40141 ft | 482 kts | 259° |
| 2026-05-08 06:26 | 53.93443 | -46.63930 | 40141 ft | 482 kts | 259° |
| 2026-05-08 06:27 | 53.92208 | -46.74709 | 40141 ft | 482 kts | 259° |
| 2026-05-08 06:27 | 53.90967 | -46.85450 | 40141 ft | 482 kts | 259° |
| 2026-05-08 06:28 | 53.89714 | -46.96202 | 40141 ft | 482 kts | 259° |
| 2026-05-08 06:28 | 53.88454 | -47.06930 | 40141 ft | 482 kts | 259° |
| 2026-05-08 06:29 | 53.87180 | -47.17686 | 40141 ft | 482 kts | 259° |
| 2026-05-08 06:29 | 53.86104 | -47.26700 | 40141 ft | 482 kts | 259° |
| 2026-05-08 06:30 | 53.84589 | -47.39292 | 40141 ft | 482 kts | 259° |
| 2026-05-08 06:30 | 53.83502 | -47.48255 | 40141 ft | 482 kts | 259° |
| 2026-05-08 06:31 | 53.82186 | -47.59029 | 40141 ft | 482 kts | 258° |
| 2026-05-08 06:31 | 53.80870 | -47.69711 | 40141 ft | 482 kts | 258° |
| 2026-05-08 06:32 | 53.79539 | -47.80439 | 40141 ft | 482 kts | 258° |
| 2026-05-08 06:32 | 53.78209 | -47.91075 | 40141 ft | 482 kts | 258° |
| 2026-05-08 06:33 | 53.76863 | -48.01754 | 40141 ft | 482 kts | 258° |
| 2026-05-08 06:33 | 53.75520 | -48.12331 | 40141 ft | 482 kts | 258° |
| 2026-05-08 06:34 | 53.74153 | -48.23007 | 40141 ft | 482 kts | 258° |
| 2026-05-08 06:34 | 53.72771 | -48.33729 | 40141 ft | 482 kts | 258° |
| 2026-05-08 06:35 | 53.71392 | -48.44347 | 40141 ft | 482 kts | 258° |
| 2026-05-08 06:35 | 53.69989 | -48.55066 | 40141 ft | 482 kts | 258° |
| 2026-05-08 06:36 | 53.68585 | -48.65712 | 40141 ft | 482 kts | 258° |
| 2026-05-08 06:36 | 53.67167 | -48.76382 | 40141 ft | 482 kts | 258° |
| 2026-05-08 06:37 | 53.65742 | -48.87035 | 40141 ft | 482 kts | 257° |
| 2026-05-08 06:37 | 53.64305 | -48.97693 | 40141 ft | 482 kts | 257° |
| 2026-05-08 06:38 | 53.62849 | -49.08424 | 40141 ft | 482 kts | 257° |
| 2026-05-08 06:38 | 53.61402 | -49.19004 | 40141 ft | 482 kts | 257° |
| 2026-05-08 06:39 | 53.59946 | -49.29574 | 40141 ft | 483 kts | 257° |
| 2026-05-08 06:39 | 53.58458 | -49.40303 | 40141 ft | 483 kts | 257° |
| 2026-05-08 06:40 | 53.56970 | -49.50956 | 40141 ft | 483 kts | 257° |
| 2026-05-08 06:40 | 53.55484 | -49.61526 | 40141 ft | 483 kts | 257° |
| 2026-05-08 06:41 | 53.53985 | -49.72117 | 40141 ft | 483 kts | 257° |
| 2026-05-08 06:41 | 53.52487 | -49.82631 | 40141 ft | 483 kts | 257° |
| 2026-05-08 06:42 | 53.50982 | -49.93093 | 40141 ft | 483 kts | 256° |
| 2026-05-08 06:42 | 53.49096 | -50.03497 | 40142 ft | 483 kts | 250° |
| 2026-05-08 06:43 | 53.46693 | -50.13608 | 40141 ft | 483 kts | 248° |
| 2026-05-08 06:43 | 53.44248 | -50.23616 | 40141 ft | 483 kts | 248° |
| 2026-05-08 06:44 | 53.41775 | -50.33715 | 40141 ft | 483 kts | 248° |
| 2026-05-08 06:44 | 53.39321 | -50.43705 | 40141 ft | 483 kts | 248° |
| 2026-05-08 06:45 | 53.36833 | -50.53794 | 40141 ft | 484 kts | 248° |
| 2026-05-08 06:45 | 53.34348 | -50.63826 | 40141 ft | 484 kts | 248° |
| 2026-05-08 06:46 | 53.31854 | -50.73851 | 40141 ft | 484 kts | 248° |
| 2026-05-08 06:46 | 53.29336 | -50.83926 | 40141 ft | 484 kts | 248° |
| 2026-05-08 06:47 | 53.26846 | -50.93841 | 40141 ft | 484 kts | 248° |
| 2026-05-08 06:47 | 53.24319 | -51.03862 | 40141 ft | 484 kts | 248° |
| 2026-05-08 06:48 | 53.21796 | -51.13819 | 40141 ft | 484 kts | 247° |
| 2026-05-08 06:48 | 53.19261 | -51.23784 | 40141 ft | 484 kts | 247° |
| 2026-05-08 06:49 | 53.16711 | -51.33759 | 40141 ft | 484 kts | 247° |
| 2026-05-08 06:49 | 53.14169 | -51.43661 | 40141 ft | 484 kts | 247° |
| 2026-05-08 06:50 | 53.11575 | -51.53718 | 40141 ft | 484 kts | 247° |
| 2026-05-08 06:50 | 53.09004 | -51.63644 | 40141 ft | 484 kts | 247° |
| 2026-05-08 06:51 | 53.06417 | -51.73587 | 40141 ft | 484 kts | 247° |
| 2026-05-08 06:51 | 53.03835 | -51.83468 | 40141 ft | 484 kts | 247° |
| 2026-05-08 06:52 | 53.01216 | -51.93447 | 40141 ft | 484 kts | 246° |
| 2026-05-08 06:52 | 52.98615 | -52.03311 | 40141 ft | 484 kts | 246° |
| 2026-05-08 06:53 | 52.95997 | -52.13199 | 40141 ft | 484 kts | 246° |
| 2026-05-08 06:53 | 52.93380 | -52.23039 | 40141 ft | 484 kts | 246° |
| 2026-05-08 06:54 | 52.90751 | -52.32885 | 40141 ft | 484 kts | 246° |
| 2026-05-08 06:54 | 52.88099 | -52.42771 | 40141 ft | 484 kts | 246° |
| 2026-05-08 06:55 | 52.85427 | -52.52691 | 40141 ft | 484 kts | 246° |
| 2026-05-08 06:55 | 52.82766 | -52.62525 | 40141 ft | 484 kts | 246° |
| 2026-05-08 06:56 | 52.80101 | -52.72336 | 40141 ft | 484 kts | 246° |
| 2026-05-08 06:56 | 52.77506 | -52.81846 | 40141 ft | 484 kts | 246° |
| 2026-05-08 06:57 | 52.74838 | -52.91585 | 40141 ft | 484 kts | 246° |
| 2026-05-08 06:57 | 52.72192 | -53.01200 | 40141 ft | 484 kts | 246° |
| 2026-05-08 06:58 | 52.69950 | -53.09317 | 40141 ft | 484 kts | 246° |
| 2026-05-08 06:58 | 52.67260 | -53.19022 | 40141 ft | 484 kts | 246° |
| 2026-05-08 06:59 | 52.64584 | -53.28635 | 40141 ft | 484 kts | 245° |
| 2026-05-08 06:59 | 52.61847 | -53.38422 | 40141 ft | 484 kts | 245° |
| 2026-05-08 07:00 | 52.59133 | -53.48090 | 40141 ft | 484 kts | 245° |
| 2026-05-08 07:00 | 52.56406 | -53.57766 | 40141 ft | 484 kts | 245° |
| 2026-05-08 07:01 | 52.53686 | -53.67375 | 40141 ft | 484 kts | 245° |
| 2026-05-08 07:01 | 52.50956 | -53.76979 | 40141 ft | 484 kts | 245° |
| 2026-05-08 07:02 | 52.48197 | -53.86647 | 40141 ft | 484 kts | 245° |
| 2026-05-08 07:02 | 52.45441 | -53.96265 | 40141 ft | 484 kts | 245° |
| 2026-05-08 07:03 | 52.42676 | -54.05878 | 40141 ft | 484 kts | 245° |
| 2026-05-08 07:03 | 52.39896 | -54.15498 | 40141 ft | 484 kts | 245° |
| 2026-05-08 07:04 | 52.37078 | -54.25214 | 40141 ft | 484 kts | 245° |
| 2026-05-08 07:04 | 52.34301 | -54.34750 | 40141 ft | 484 kts | 245° |
| 2026-05-08 07:05 | 52.31504 | -54.44314 | 40141 ft | 484 kts | 245° |
| 2026-05-08 07:05 | 52.28681 | -54.53928 | 40141 ft | 484 kts | 245° |
| 2026-05-08 07:06 | 52.25889 | -54.63401 | 40141 ft | 484 kts | 244° |
| 2026-05-08 07:06 | 52.23068 | -54.72934 | 40141 ft | 484 kts | 244° |
| 2026-05-08 07:07 | 52.20256 | -54.82400 | 40141 ft | 484 kts | 244° |
| 2026-05-08 07:07 | 52.17421 | -54.91908 | 40141 ft | 484 kts | 244° |
| 2026-05-08 07:08 | 52.14574 | -55.01421 | 40141 ft | 484 kts | 244° |
| 2026-05-08 07:08 | 52.11708 | -55.10954 | 40141 ft | 484 kts | 244° |
| 2026-05-08 07:09 | 52.08809 | -55.20541 | 40141 ft | 484 kts | 244° |
| 2026-05-08 07:09 | 52.05887 | -55.30099 | 40141 ft | 484 kts | 244° |
| 2026-05-08 07:10 | 52.02952 | -55.39669 | 40141 ft | 484 kts | 244° |
| 2026-05-08 07:10 | 52.00025 | -55.49183 | 40141 ft | 484 kts | 244° |
| 2026-05-08 07:11 | 51.97024 | -55.58901 | 40141 ft | 484 kts | 244° |
| 2026-05-08 07:11 | 51.93999 | -55.68663 | 40141 ft | 484 kts | 244° |
| 2026-05-08 07:12 | 51.90962 | -55.78419 | 40141 ft | 484 kts | 243° |
| 2026-05-08 07:12 | 51.87919 | -55.88159 | 40141 ft | 484 kts | 243° |
| 2026-05-08 07:13 | 51.84896 | -55.97797 | 40141 ft | 484 kts | 243° |
| 2026-05-08 07:13 | 51.81824 | -56.07552 | 40141 ft | 484 kts | 243° |
| 2026-05-08 07:14 | 51.78777 | -56.17188 | 40141 ft | 484 kts | 243° |
| 2026-05-08 07:14 | 51.75722 | -56.26815 | 40141 ft | 484 kts | 243° |
| 2026-05-08 07:15 | 51.72685 | -56.36344 | 40141 ft | 484 kts | 243° |
| 2026-05-08 07:15 | 51.69639 | -56.45866 | 40141 ft | 484 kts | 243° |
| 2026-05-08 07:16 | 51.66578 | -56.55396 | 40141 ft | 484 kts | 243° |
| 2026-05-08 07:16 | 51.63485 | -56.64991 | 40141 ft | 484 kts | 243° |
| 2026-05-08 07:17 | 51.60412 | -56.74486 | 40141 ft | 484 kts | 243° |
| 2026-05-08 07:17 | 51.57309 | -56.84036 | 40141 ft | 484 kts | 243° |
| 2026-05-08 07:18 | 51.54205 | -56.93553 | 40141 ft | 484 kts | 243° |
| 2026-05-08 07:18 | 51.51129 | -57.02950 | 40140 ft | 484 kts | 243° |
| 2026-05-08 07:19 | 51.48038 | -57.12355 | 40142 ft | 484 kts | 242° |
| 2026-05-08 07:19 | 51.44953 | -57.21706 | 40141 ft | 484 kts | 242° |
| 2026-05-08 07:20 | 51.41847 | -57.31086 | 40141 ft | 484 kts | 242° |
| 2026-05-08 07:20 | 51.38741 | -57.40431 | 40141 ft | 484 kts | 242° |
| 2026-05-08 07:21 | 51.35601 | -57.49845 | 40141 ft | 484 kts | 242° |
| 2026-05-08 07:21 | 51.32432 | -57.59307 | 40141 ft | 484 kts | 242° |
| 2026-05-08 07:22 | 51.29270 | -57.68712 | 40141 ft | 484 kts | 242° |
| 2026-05-08 07:22 | 51.26096 | -57.78120 | 40141 ft | 484 kts | 242° |
| 2026-05-08 07:23 | 51.22928 | -57.87473 | 40141 ft | 484 kts | 242° |
| 2026-05-08 07:23 | 51.19793 | -57.96697 | 40141 ft | 484 kts | 242° |
| 2026-05-08 07:24 | 51.16636 | -58.05947 | 40141 ft | 485 kts | 242° |
| 2026-05-08 07:24 | 51.13518 | -58.15055 | 40141 ft | 484 kts | 242° |
| 2026-05-08 07:25 | 51.10370 | -58.24212 | 40141 ft | 485 kts | 242° |
| 2026-05-08 07:26 | 51.05624 | -58.37959 | 40141 ft | 485 kts | 242° |
| 2026-05-08 07:26 | 51.02457 | -58.47090 | 40141 ft | 485 kts | 241° |
| 2026-05-08 07:27 | 50.99315 | -58.56119 | 40141 ft | 485 kts | 241° |
| 2026-05-08 07:27 | 50.96658 | -58.63725 | 40141 ft | 485 kts | 241° |
| 2026-05-08 07:28 | 50.93484 | -58.72786 | 40141 ft | 485 kts | 241° |
| 2026-05-08 07:28 | 50.90277 | -58.81907 | 40141 ft | 485 kts | 241° |
| 2026-05-08 07:29 | 50.87060 | -58.91022 | 40141 ft | 485 kts | 241° |
| 2026-05-08 07:29 | 50.83879 | -59.00004 | 40141 ft | 485 kts | 241° |
| 2026-05-08 07:30 | 50.80616 | -59.09187 | 40141 ft | 485 kts | 241° |
| 2026-05-08 07:30 | 50.77362 | -59.18308 | 40141 ft | 485 kts | 241° |
| 2026-05-08 07:31 | 50.74129 | -59.27341 | 40141 ft | 485 kts | 241° |
| 2026-05-08 07:31 | 50.70903 | -59.36319 | 40141 ft | 485 kts | 240° |
| 2026-05-08 07:32 | 50.67656 | -59.45328 | 40141 ft | 485 kts | 240° |
| 2026-05-08 07:32 | 50.64415 | -59.54287 | 40141 ft | 485 kts | 240° |
| 2026-05-08 07:33 | 50.61146 | -59.63290 | 40141 ft | 485 kts | 240° |
| 2026-05-08 07:33 | 50.57845 | -59.72351 | 40141 ft | 485 kts | 240° |
| 2026-05-08 07:34 | 50.54535 | -59.81406 | 40141 ft | 485 kts | 240° |
| 2026-05-08 07:34 | 50.51214 | -59.90458 | 40141 ft | 485 kts | 240° |
| 2026-05-08 07:35 | 50.47895 | -59.99471 | 40141 ft | 485 kts | 240° |
| 2026-05-08 07:35 | 50.44597 | -60.08399 | 40141 ft | 485 kts | 240° |
| 2026-05-08 07:36 | 50.41236 | -60.17464 | 40141 ft | 485 kts | 240° |
| 2026-05-08 07:36 | 50.37929 | -60.26351 | 40141 ft | 485 kts | 240° |
| 2026-05-08 07:37 | 50.34621 | -60.35212 | 40141 ft | 485 kts | 240° |
| 2026-05-08 07:37 | 50.31328 | -60.44002 | 40141 ft | 485 kts | 240° |
| 2026-05-08 07:38 | 50.28004 | -60.52847 | 40141 ft | 485 kts | 240° |
| 2026-05-08 07:38 | 50.24638 | -60.61770 | 40139 ft | 485 kts | 240° |
| 2026-05-08 07:39 | 50.21304 | -60.70580 | 40138 ft | 485 kts | 239° |
| 2026-05-08 07:39 | 50.17982 | -60.79328 | 40138 ft | 485 kts | 239° |
| 2026-05-08 07:40 | 50.14627 | -60.88134 | 40138 ft | 485 kts | 239° |
| 2026-05-08 07:40 | 50.11274 | -60.96905 | 40138 ft | 485 kts | 239° |
| 2026-05-08 07:41 | 50.07922 | -61.05643 | 40139 ft | 485 kts | 239° |
| 2026-05-08 07:41 | 50.04578 | -61.14334 | 40141 ft | 485 kts | 239° |
| 2026-05-08 07:42 | 50.01200 | -61.23081 | 40141 ft | 485 kts | 239° |
| 2026-05-08 07:42 | 49.97837 | -61.31761 | 40141 ft | 485 kts | 239° |
| 2026-05-08 07:43 | 49.94496 | -61.40353 | 40141 ft | 485 kts | 239° |
| 2026-05-08 07:43 | 49.91163 | -61.48899 | 40141 ft | 485 kts | 239° |
| 2026-05-08 07:44 | 49.87798 | -61.57498 | 40141 ft | 485 kts | 239° |
| 2026-05-08 07:44 | 49.84456 | -61.66011 | 40141 ft | 485 kts | 239° |
| 2026-05-08 07:45 | 49.81152 | -61.74400 | 40141 ft | 485 kts | 239° |
| 2026-05-08 07:45 | 49.77824 | -61.82820 | 40141 ft | 485 kts | 239° |
| 2026-05-08 07:46 | 49.74458 | -61.91312 | 40141 ft | 485 kts | 239° |
| 2026-05-08 07:46 | 49.71079 | -61.99810 | 40141 ft | 485 kts | 239° |
| 2026-05-08 07:47 | 49.67664 | -62.08369 | 40141 ft | 485 kts | 238° |
| 2026-05-08 07:47 | 49.64231 | -62.16944 | 40141 ft | 485 kts | 238° |
| 2026-05-08 07:48 | 49.60794 | -62.25505 | 40141 ft | 485 kts | 238° |
| 2026-05-08 07:48 | 49.57325 | -62.34114 | 40141 ft | 485 kts | 238° |
| 2026-05-08 07:49 | 49.53866 | -62.42673 | 40141 ft | 485 kts | 238° |
| 2026-05-08 07:49 | 49.50387 | -62.51250 | 40141 ft | 485 kts | 238° |
| 2026-05-08 07:50 | 49.46912 | -62.59793 | 40141 ft | 485 kts | 238° |
| 2026-05-08 07:50 | 49.43377 | -62.68452 | 40141 ft | 485 kts | 238° |
| 2026-05-08 07:51 | 49.39926 | -62.76881 | 40141 ft | 485 kts | 238° |
| 2026-05-08 07:51 | 49.36446 | -62.85353 | 40141 ft | 485 kts | 238° |
| 2026-05-08 07:52 | 49.32932 | -62.93880 | 40141 ft | 485 kts | 238° |
| 2026-05-08 07:52 | 49.30008 | -63.00954 | 40141 ft | 485 kts | 238° |
| 2026-05-08 07:53 | 49.26529 | -63.09347 | 40141 ft | 485 kts | 238° |
| 2026-05-08 07:53 | 49.23069 | -63.17668 | 40141 ft | 485 kts | 238° |
| 2026-05-08 07:54 | 49.19572 | -63.26051 | 40141 ft | 485 kts | 238° |
| 2026-05-08 07:54 | 49.16143 | -63.34247 | 40141 ft | 485 kts | 238° |
| 2026-05-08 07:55 | 49.12724 | -63.42392 | 40141 ft | 485 kts | 238° |
| 2026-05-08 07:55 | 49.09355 | -63.50396 | 40141 ft | 485 kts | 237° |
| 2026-05-08 07:56 | 49.05990 | -63.58364 | 40141 ft | 485 kts | 237° |
| 2026-05-08 07:56 | 49.02512 | -63.66575 | 40141 ft | 485 kts | 237° |
| 2026-05-08 07:57 | 48.99057 | -63.74708 | 40141 ft | 485 kts | 237° |
| 2026-05-08 07:57 | 48.95624 | -63.82764 | 40141 ft | 485 kts | 237° |
| 2026-05-08 07:58 | 48.92078 | -63.91060 | 40141 ft | 485 kts | 237° |
| 2026-05-08 07:58 | 48.88529 | -63.99338 | 40141 ft | 485 kts | 237° |
| 2026-05-08 07:59 | 48.84925 | -64.07718 | 40141 ft | 485 kts | 237° |
| 2026-05-08 07:59 | 48.81316 | -64.16084 | 40141 ft | 485 kts | 237° |
| 2026-05-08 08:00 | 48.77676 | -64.24495 | 40141 ft | 485 kts | 237° |
| 2026-05-08 08:00 | 48.73992 | -64.32980 | 40141 ft | 485 kts | 237° |
| 2026-05-08 08:01 | 48.70282 | -64.41499 | 40141 ft | 485 kts | 237° |
| 2026-05-08 08:01 | 48.66566 | -64.50004 | 40141 ft | 485 kts | 237° |
| 2026-05-08 08:02 | 48.62855 | -64.58471 | 40141 ft | 485 kts | 237° |
| 2026-05-08 08:02 | 48.59121 | -64.66965 | 40141 ft | 485 kts | 237° |
| 2026-05-08 08:03 | 48.55386 | -64.75433 | 40141 ft | 485 kts | 237° |
| 2026-05-08 08:03 | 48.51649 | -64.83879 | 40141 ft | 485 kts | 236° |
| 2026-05-08 08:04 | 48.47924 | -64.92273 | 40141 ft | 485 kts | 236° |
| 2026-05-08 08:04 | 48.44219 | -65.00596 | 40141 ft | 485 kts | 236° |
| 2026-05-08 08:05 | 48.40458 | -65.09019 | 40141 ft | 485 kts | 236° |
| 2026-05-08 08:05 | 48.36711 | -65.17382 | 40141 ft | 485 kts | 236° |
| 2026-05-08 08:06 | 48.32957 | -65.25737 | 40141 ft | 485 kts | 236° |
| 2026-05-08 08:06 | 48.29207 | -65.34058 | 40141 ft | 485 kts | 236° |
| 2026-05-08 08:07 | 48.25452 | -65.42362 | 40141 ft | 485 kts | 236° |
| 2026-05-08 08:07 | 48.21660 | -65.50724 | 40141 ft | 485 kts | 236° |
| 2026-05-08 08:08 | 48.17868 | -65.59061 | 40141 ft | 486 kts | 236° |
| 2026-05-08 08:08 | 48.14102 | -65.67315 | 40141 ft | 486 kts | 236° |
| 2026-05-08 08:09 | 48.10263 | -65.75703 | 40141 ft | 486 kts | 236° |
| 2026-05-08 08:09 | 48.06449 | -65.84010 | 40141 ft | 486 kts | 236° |
| 2026-05-08 08:10 | 48.02622 | -65.92322 | 40141 ft | 486 kts | 236° |
| 2026-05-08 08:10 | 47.98919 | -66.00338 | 40141 ft | 486 kts | 236° |
| 2026-05-08 08:11 | 47.95066 | -66.08656 | 40141 ft | 486 kts | 236° |
| 2026-05-08 08:11 | 47.91214 | -66.16945 | 40141 ft | 486 kts | 236° |
| 2026-05-08 08:12 | 47.87379 | -66.25175 | 40141 ft | 486 kts | 235° |